This is the latest recevied weather packets stored in our database for station/object N8XHB. If no packets are shown the sender has not sent any weather packets the latest 10 day(s).
| Time | Temp. | Humidity | Pressure | Rain* | Wind** | Luminosity | Snow |
|---|---|---|---|---|---|---|---|
| 1777723876 | 3.89° C | 70% | 1019.3 hPa | 0 mm | - | 167 W/m² | - |
| 1777723572 | 3.89° C | 71% | 1019.3 hPa | 0 mm | - | 153 W/m² | - |
| 1777723269 | 3.89° C | 70% | 1019.4 hPa | 0 mm | - | 141 W/m² | - |
| 1777722967 | 3.33° C | 70% | 1019.5 hPa | 0 mm | - | 128 W/m² | - |
| 1777722662 | 3.89° C | 69% | 1019.3 hPa | 0 mm | - | 116 W/m² | - |
| 1777722359 | 5° C | 65% | 1019.1 hPa | 0 mm | - | 104 W/m² | - |
| 1777722056 | 3.89° C | 69% | 1019.2 hPa | 0 mm | - | 93 W/m² | - |
| 1777721754 | 2.78° C | 74% | 1019.1 hPa | 0 mm | - | 82 W/m² | - |
| 1777721452 | 1.67° C | 79% | 1019.1 hPa | 0 mm | - | 74 W/m² | - |
| 1777721149 | 0° C | 84% | 1019.2 hPa | 0 mm | - | 62 W/m² | - |
| 1777720847 | -0.56° C | 87% | 1019.1 hPa | 0 mm | - | 40 W/m² | - |
| 1777720544 | -0.56° C | 88% | 1019.1 hPa | 0 mm | - | 35 W/m² | - |
| 1777720241 | -1.11° C | 88% | 1019.1 hPa | 0 mm | - | 29 W/m² | - |
| 1777719939 | -1.11° C | 88% | 1018.9 hPa | 0 mm | - | 23 W/m² | - |
| 1777719636 | -1.11° C | 87% | 1019 hPa | 0 mm | - | 18 W/m² | - |
| 1777719333 | -1.11° C | 86% | 1018.9 hPa | 0 mm | - | 14 W/m² | - |
| 1777719031 | -1.11° C | 86% | 1018.9 hPa | 0 mm | - | 9 W/m² | - |
| 1777718728 | -1.11° C | 87% | 1019.1 hPa | 0 mm | - | 7 W/m² | - |
| 1777718425 | -1.11° C | 87% | 1018.8 hPa | 0 mm | - | 5 W/m² | - |
| 1777718123 | -1.11° C | 86% | 1018.8 hPa | 0 mm | - | 3 W/m² | - |
| 1777717821 | -1.11° C | 86% | 1018.9 hPa | 0 mm | - | 2 W/m² | - |
| 1777717517 | -1.11° C | 85% | 1019 hPa | 0 mm | - | 1 W/m² | - |
| 1777717214 | -1.11° C | 85% | 1018.8 hPa | 0 mm | - | 0 W/m² | - |
| 1777716912 | -0.56° C | 84% | 1018.8 hPa | 0 mm | - | 0 W/m² | - |
| 1777716610 | -0.56° C | 84% | 1018.9 hPa | 0 mm | - | 0 W/m² | - |
* Rain latest hour (hover to see other rain measurements)
** Current wind speed in m/s (hover to see current wind gust speed)